createdAt,value
2018-08-18T00:00:39.638Z,0
2018-08-18T00:01:39.378Z,0
2018-08-18T00:02:39.630Z,0
2018-08-18T00:03:39.627Z,0
2018-08-18T00:04:39.622Z,0
2018-08-18T00:05:39.618Z,0
2018-08-18T00:06:39.622Z,0
2018-08-18T00:07:39.613Z,0
2018-08-18T00:08:39.608Z,0
2018-08-18T00:09:39.347Z,0
2018-08-18T00:10:39.605Z,0
2018-08-18T00:11:39.600Z,0
2018-08-18T00:12:39.592Z,0
2018-08-18T00:13:39.587Z,0
2018-08-18T00:14:39.326Z,0
2018-08-18T00:15:39.579Z,0
2018-08-18T00:16:39.573Z,0
2018-08-18T00:17:39.577Z,0
2018-08-18T00:18:39.568Z,0
2018-08-18T00:19:39.568Z,0
2018-08-18T00:20:39.303Z,0
2018-08-18T00:21:39.557Z,0
2018-08-18T00:22:39.554Z,0
2018-08-18T00:23:39.551Z,0
2018-08-18T00:24:39.544Z,0
2018-08-18T00:25:39.542Z,0
2018-08-18T00:26:39.541Z,0
2018-08-18T00:27:39.534Z,0
2018-08-18T00:28:39.532Z,0
2018-08-18T00:29:39.526Z,0
2018-08-18T00:30:39.522Z,0
2018-08-18T00:31:39.260Z,0
2018-08-18T00:32:39.512Z,0
2018-08-18T00:33:39.510Z,0
2018-08-18T00:34:39.508Z,0
2018-08-18T00:35:39.245Z,0
2018-08-18T00:36:39.499Z,0
2018-08-18T00:37:39.506Z,0
2018-08-18T00:38:39.497Z,0
2018-08-18T00:39:39.486Z,0
2018-08-18T00:40:39.482Z,0
2018-08-18T00:41:39.480Z,0
2018-08-18T00:42:39.482Z,0
2018-08-18T00:43:39.473Z,0
2018-08-18T00:44:39.469Z,0
2018-08-18T00:45:39.207Z,0
2018-08-18T00:46:39.463Z,0
2018-08-18T00:47:39.459Z,0
2018-08-18T00:48:39.449Z,0
2018-08-18T00:49:39.447Z,0
2018-08-18T00:50:39.193Z,0
2018-08-18T00:51:39.439Z,0
2018-08-18T00:52:39.438Z,0
2018-08-18T00:53:39.432Z,0
2018-08-18T00:54:39.427Z,0
2018-08-18T00:55:39.425Z,0
2018-08-18T00:56:39.420Z,0
2018-08-18T00:57:39.424Z,0
2018-08-18T00:58:39.412Z,0
2018-08-18T00:59:39.413Z,0
2018-08-18T01:00:39.404Z,0
2018-08-18T01:01:39.400Z,0
2018-08-18T01:02:39.396Z,0
2018-08-18T01:03:39.399Z,0
2018-08-18T01:04:39.392Z,0
2018-08-18T01:05:39.389Z,0
2018-08-18T01:06:39.122Z,0
2018-08-18T01:07:39.376Z,0
2018-08-18T01:08:39.372Z,0
2018-08-18T01:09:39.369Z,0
2018-08-18T01:10:39.375Z,0
2018-08-18T01:11:39.725Z,0
2018-08-18T01:12:39.289Z,0
2018-08-18T01:13:39.121Z,0
2018-08-18T01:14:39.453Z,0
2018-08-18T01:15:39.232Z,0
2018-08-18T01:16:39.344Z,0
2018-08-18T01:17:39.352Z,0
2018-08-18T01:18:39.342Z,0
2018-08-18T01:19:39.337Z,0
2018-08-18T01:20:39.326Z,0
2018-08-18T01:21:39.325Z,0
2018-08-18T01:22:39.322Z,0
2018-08-18T01:23:39.316Z,0
2018-08-18T01:24:39.313Z,0
2018-08-18T01:25:39.307Z,0
2018-08-18T01:26:39.304Z,0
2018-08-18T01:27:39.302Z,0
2018-08-18T01:28:39.299Z,0
2018-08-18T01:29:39.295Z,0
2018-08-18T01:30:39.341Z,0
2018-08-18T01:31:39.293Z,0
2018-08-18T01:32:39.286Z,0
2018-08-18T01:33:39.281Z,0
2018-08-18T01:34:39.276Z,0
2018-08-18T01:35:39.270Z,0
2018-08-18T01:36:39.268Z,0
2018-08-18T01:37:39.266Z,0
2018-08-18T01:38:39.267Z,0
2018-08-18T01:39:39.258Z,0
2018-08-18T01:40:39.254Z,0
2018-08-18T01:41:39.248Z,0
2018-08-18T01:42:39.244Z,0
2018-08-18T01:43:38.990Z,0
2018-08-18T01:44:38.985Z,0
2018-08-18T01:45:39.235Z,0
2018-08-18T01:46:39.232Z,0
2018-08-18T01:47:39.227Z,0
2018-08-18T01:48:39.224Z,0
2018-08-18T01:49:39.219Z,0
2018-08-18T01:50:39.218Z,0
2018-08-18T01:51:39.212Z,0
2018-08-18T01:52:38.952Z,0
2018-08-18T01:53:38.949Z,0
2018-08-18T01:54:38.945Z,0
2018-08-18T01:55:39.205Z,0
2018-08-18T01:56:38.938Z,0
2018-08-18T01:57:38.935Z,0
2018-08-18T01:58:38.932Z,0
2018-08-18T01:59:39.183Z,0
2018-08-18T02:00:39.180Z,0
2018-08-18T02:01:39.178Z,0
2018-08-18T02:02:39.173Z,0
2018-08-18T02:03:39.174Z,0
2018-08-18T02:04:39.166Z,0
2018-08-18T02:05:39.163Z,0
2018-08-18T02:06:39.164Z,0
2018-08-18T02:07:39.155Z,0
2018-08-18T02:08:39.152Z,0
2018-08-18T02:09:38.891Z,0
2018-08-18T02:10:39.145Z,0
2018-08-18T02:11:39.145Z,0
2018-08-18T02:12:39.136Z,0
2018-08-18T02:13:38.876Z,0
2018-08-18T02:14:38.873Z,0
2018-08-18T02:15:39.126Z,0
2018-08-18T02:16:39.122Z,0
2018-08-18T02:17:39.127Z,0
2018-08-18T02:18:39.119Z,0
2018-08-18T02:19:38.854Z,0
2018-08-18T02:20:39.105Z,0
2018-08-18T02:21:39.106Z,0
2018-08-18T02:22:39.101Z,0
2018-08-18T02:23:39.140Z,0
2018-08-18T02:24:39.095Z,0
2018-08-18T02:25:39.089Z,0
2018-08-18T02:26:39.082Z,0
2018-08-18T02:27:39.081Z,0
2018-08-18T02:28:38.821Z,0
2018-08-18T02:29:39.074Z,0
2018-08-18T02:30:39.077Z,0
2018-08-18T02:31:39.067Z,0
2018-08-18T02:32:39.097Z,0
2018-08-18T02:33:39.058Z,0
2018-08-18T02:34:39.058Z,0
2018-08-18T02:35:39.052Z,0
2018-08-18T02:36:39.051Z,0
2018-08-18T02:37:39.044Z,0
2018-08-18T02:38:38.783Z,0
2018-08-18T02:39:39.047Z,0
2018-08-18T02:40:39.035Z,0
2018-08-18T02:41:39.029Z,0
2018-08-18T02:42:38.770Z,0
2018-08-18T02:43:39.021Z,0
2018-08-18T02:44:39.017Z,0
2018-08-18T02:45:39.014Z,0
2018-08-18T02:46:39.013Z,0
2018-08-18T02:47:38.752Z,0
2018-08-18T02:48:38.747Z,0
2018-08-18T02:49:38.998Z,0
2018-08-18T02:50:38.740Z,0
2018-08-18T02:51:38.990Z,0
2018-08-18T02:52:38.990Z,0
2018-08-18T02:53:38.992Z,0
2018-08-18T02:54:38.985Z,0
2018-08-18T02:55:38.976Z,0
2018-08-18T02:56:38.714Z,0
2018-08-18T02:57:38.713Z,0
2018-08-18T02:58:38.966Z,0
2018-08-18T02:59:38.962Z,0
2018-08-18T03:00:38.958Z,0
2018-08-18T03:01:38.953Z,0
2018-08-18T03:02:38.959Z,0
2018-08-18T03:03:38.946Z,0
2018-08-18T03:04:38.942Z,0
2018-08-18T03:05:38.947Z,0
2018-08-18T03:06:38.932Z,0
2018-08-18T03:07:38.942Z,0
2018-08-18T03:08:38.671Z,0
2018-08-18T03:09:38.923Z,0
2018-08-18T03:10:38.921Z,0
2018-08-18T03:11:38.657Z,0
2018-08-18T03:12:38.653Z,0
2018-08-18T03:13:38.912Z,0
2018-08-18T03:14:38.905Z,0
2018-08-18T03:15:38.642Z,0
2018-08-18T03:16:38.907Z,0
2018-08-18T03:17:38.891Z,0
2018-08-18T03:18:38.642Z,0
2018-08-18T03:19:38.882Z,0
2018-08-18T03:20:38.878Z,0
2018-08-18T03:21:38.880Z,0
2018-08-18T03:22:38.871Z,0
2018-08-18T03:23:38.867Z,0
2018-08-18T03:24:38.865Z,0
2018-08-18T03:25:38.881Z,0
2018-08-18T03:26:38.858Z,0
2018-08-18T03:27:38.854Z,0
2018-08-18T03:28:38.852Z,0
2018-08-18T03:29:38.865Z,0
2018-08-18T03:30:38.848Z,0
2018-08-18T03:31:38.837Z,0
2018-08-18T03:32:38.842Z,0
2018-08-18T03:33:38.834Z,0
2018-08-18T03:34:38.827Z,0
2018-08-18T03:35:38.823Z,0
2018-08-18T03:36:38.561Z,0
2018-08-18T03:37:38.557Z,0
2018-08-18T03:38:38.553Z,0
2018-08-18T03:39:38.808Z,0
2018-08-18T03:40:38.804Z,0
2018-08-18T03:41:38.816Z,0
2018-08-18T03:42:38.794Z,0
2018-08-18T03:43:38.792Z,0
2018-08-18T03:44:38.533Z,0
2018-08-18T03:45:38.784Z,0
2018-08-18T03:46:38.524Z,0
2018-08-18T03:47:38.780Z,0
2018-08-18T03:48:38.774Z,0
2018-08-18T03:49:38.772Z,0
2018-08-18T03:50:38.769Z,0
2018-08-18T03:51:38.763Z,0
2018-08-18T03:52:38.764Z,0
2018-08-18T03:53:38.754Z,0
2018-08-18T03:54:38.750Z,0
2018-08-18T03:55:38.764Z,0
2018-08-18T03:56:38.746Z,0
2018-08-18T03:57:38.737Z,0
2018-08-18T03:58:38.734Z,0
2018-08-18T03:59:38.740Z,0
2018-08-18T04:00:38.728Z,0
2018-08-18T04:01:38.840Z,0
2018-08-18T04:02:38.722Z,0
2018-08-18T04:03:38.718Z,0
2018-08-18T04:04:38.714Z,0
2018-08-18T04:05:38.707Z,0
2018-08-18T04:06:38.707Z,0
2018-08-18T04:07:38.708Z,0
2018-08-18T04:08:38.697Z,0
2018-08-18T04:09:38.700Z,0
2018-08-18T04:10:38.690Z,0
2018-08-18T04:11:38.686Z,0
2018-08-18T04:12:38.685Z,0
2018-08-18T04:13:38.677Z,0
2018-08-18T04:14:38.418Z,0
2018-08-18T04:15:38.677Z,0
2018-08-18T04:16:38.666Z,0
2018-08-18T04:17:38.407Z,0
2018-08-18T04:18:38.659Z,0
2018-08-18T04:19:38.657Z,0
2018-08-18T04:20:38.397Z,0
2018-08-18T04:21:38.650Z,0
2018-08-18T04:22:38.653Z,0
2018-08-18T04:23:38.642Z,0
2018-08-18T04:24:38.642Z,0
2018-08-18T04:25:38.636Z,0
2018-08-18T04:26:38.631Z,0
2018-08-18T04:27:38.369Z,0
2018-08-18T04:28:38.624Z,0
2018-08-18T04:29:38.620Z,0
2018-08-18T04:30:38.360Z,0
2018-08-18T04:31:38.613Z,0
2018-08-18T04:32:38.352Z,0
2018-08-18T04:33:38.604Z,0
2018-08-18T04:34:38.601Z,0
2018-08-18T04:35:38.340Z,0
2018-08-18T04:36:38.593Z,0
2018-08-18T04:37:38.592Z,0
2018-08-18T04:38:38.583Z,0
2018-08-18T04:39:38.591Z,0
2018-08-18T04:40:38.588Z,0
2018-08-18T04:41:38.577Z,0
2018-08-18T04:42:38.569Z,0
2018-08-18T04:43:38.330Z,0
2018-08-18T04:44:38.563Z,0
2018-08-18T04:45:38.558Z,0
2018-08-18T04:46:38.553Z,0
2018-08-18T04:47:38.549Z,0
2018-08-18T04:48:38.544Z,0
2018-08-18T04:49:38.556Z,0
2018-08-18T04:50:38.365Z,0
2018-08-18T04:51:38.535Z,0
2018-08-18T04:52:38.535Z,0
2018-08-18T04:53:38.528Z,0
2018-08-18T04:54:38.529Z,0
2018-08-18T04:55:38.520Z,0
2018-08-18T04:56:38.517Z,0
2018-08-18T04:57:38.258Z,0
2018-08-18T04:58:38.509Z,0
2018-08-18T04:59:38.507Z,0
2018-08-18T05:00:38.499Z,0
2018-08-18T05:01:38.494Z,0
2018-08-18T05:02:38.491Z,0
2018-08-18T05:03:38.629Z,0
2018-08-18T05:04:38.491Z,0
2018-08-18T05:05:38.499Z,0
2018-08-18T05:06:38.477Z,0
2018-08-18T05:07:38.474Z,0
2018-08-18T05:08:38.470Z,0
2018-08-18T05:09:38.478Z,0
2018-08-18T05:10:38.459Z,0
2018-08-18T05:11:38.641Z,0
2018-08-18T05:12:38.453Z,0
2018-08-18T05:13:38.447Z,0
2018-08-18T05:14:38.453Z,0
2018-08-18T05:15:38.442Z,0
2018-08-18T05:16:38.437Z,0
2018-08-18T05:17:38.173Z,0
2018-08-18T05:18:38.174Z,0
2018-08-18T05:19:38.433Z,0
2018-08-18T05:20:38.433Z,0.29
2018-08-18T05:21:38.430Z,1.43
2018-08-18T05:22:38.421Z,1.43
2018-08-18T05:23:38.410Z,2.2
2018-08-18T05:24:38.404Z,3.83
2018-08-18T05:25:38.403Z,4.88
2018-08-18T05:26:38.398Z,5.65
2018-08-18T05:27:38.144Z,6.42
2018-08-18T05:28:38.136Z,6.8
2018-08-18T05:29:38.390Z,6.51
2018-08-18T05:30:38.388Z,6.99
2018-08-18T05:31:38.379Z,7.57
2018-08-18T05:32:38.378Z,8.24
2018-08-18T05:33:38.375Z,9.2
2018-08-18T05:34:38.371Z,9.2
2018-08-18T05:35:38.369Z,10.83
2018-08-18T05:36:38.566Z,10.73
2018-08-18T05:37:38.103Z,10.54
2018-08-18T05:38:38.355Z,11.98
2018-08-18T05:39:38.350Z,13.61
2018-08-18T05:40:38.347Z,14.86
2018-08-18T05:41:38.346Z,13.52
2018-08-18T05:42:38.092Z,15.72
2018-08-18T05:43:38.079Z,15.92
2018-08-18T05:44:38.332Z,16.78
2018-08-18T05:45:38.330Z,17.16
2018-08-18T05:46:38.325Z,15.92
2018-08-18T05:47:38.449Z,14.67
2018-08-18T05:48:38.319Z,14
2018-08-18T05:49:38.314Z,12.56
2018-08-18T05:50:38.311Z,13.13
2018-08-18T05:51:38.050Z,14.86
2018-08-18T05:52:38.302Z,18.12
2018-08-18T05:53:38.299Z,20.04
2018-08-18T05:54:38.040Z,20.9
2018-08-18T05:55:38.295Z,20.9
2018-08-18T05:56:38.291Z,21.28
2018-08-18T05:57:38.287Z,21.86
2018-08-18T05:58:38.285Z,25.02
2018-08-18T05:59:38.368Z,24.16
2018-08-18T06:00:38.274Z,23.21
2018-08-18T06:01:38.273Z,21.77
2018-08-18T06:02:38.268Z,22.24
2018-08-18T06:03:38.264Z,21.09
2018-08-18T06:04:38.266Z,20.52
2018-08-18T06:05:38.004Z,20.14
2018-08-18T06:06:38.254Z,19.94
2018-08-18T06:07:37.993Z,19.65
2018-08-18T06:08:38.251Z,20.61
2018-08-18T06:09:38.247Z,19.56
2018-08-18T06:10:38.239Z,18.98
2018-08-18T06:11:38.236Z,18.89
2018-08-18T06:12:38.231Z,18.51
2018-08-18T06:13:38.227Z,17.93
2018-08-18T06:14:38.225Z,17.64
2018-08-18T06:15:38.221Z,17.35
2018-08-18T06:16:38.228Z,17.35
2018-08-18T06:17:38.220Z,16.11
2018-08-18T06:18:38.212Z,15.82
2018-08-18T06:19:38.215Z,15.92
2018-08-18T06:20:38.218Z,16.2
2018-08-18T06:21:38.199Z,15.72
2018-08-18T06:22:38.202Z,17.07
2018-08-18T06:23:38.197Z,15.43
2018-08-18T06:24:38.224Z,14.28
2018-08-18T06:25:38.184Z,16.1
2018-08-18T06:26:37.922Z,17.25
2018-08-18T06:27:38.178Z,18.02
2018-08-18T06:28:37.917Z,19.56
2018-08-18T06:29:38.171Z,18.41
2018-08-18T06:30:38.165Z,16.01
2018-08-18T06:31:37.905Z,14.38
2018-08-18T06:32:38.157Z,13.13
2018-08-18T06:33:37.899Z,14.86
2018-08-18T06:34:38.341Z,15.82
2018-08-18T06:35:38.147Z,18.7
2018-08-18T06:36:38.150Z,20.81
2018-08-18T06:37:38.140Z,23.49
2018-08-18T06:38:38.149Z,23.68
2018-08-18T06:39:37.877Z,24.94
2018-08-18T06:40:37.875Z,25.12
2018-08-18T06:41:38.412Z,25.61
2018-08-18T06:42:38.122Z,29.35
2018-08-18T06:43:38.121Z,30.51
2018-08-18T06:44:38.115Z,29.83
2018-08-18T06:45:38.111Z,30.79
2018-08-18T06:46:38.110Z,31.95
2018-08-18T06:47:38.105Z,34.53
2018-08-18T06:48:38.111Z,35.4
2018-08-18T06:49:37.840Z,38.59
2018-08-18T06:50:38.096Z,39.83
2018-08-18T06:51:38.093Z,40.79
2018-08-18T06:52:38.090Z,41.17
2018-08-18T06:53:38.085Z,43.67
2018-08-18T06:54:38.170Z,46.84
2018-08-18T06:55:38.088Z,50.13
2018-08-18T06:56:38.079Z,52.62
2018-08-18T06:57:38.073Z,53.87
2018-08-18T06:58:38.073Z,57.62
2018-08-18T06:59:38.070Z,57.5
2018-08-18T07:00:37.808Z,60.47
2018-08-18T07:01:38.063Z,59.54
2018-08-18T07:02:38.061Z,58.55
2018-08-18T07:03:38.055Z,56.34
2018-08-18T07:04:38.053Z,53.27
2018-08-18T07:05:38.049Z,53.56
2018-08-18T07:06:38.048Z,52.02
2018-08-18T07:07:38.046Z,51.45
2018-08-18T07:08:38.040Z,50.2
2018-08-18T07:09:38.039Z,51.45
2018-08-18T07:10:38.039Z,50.29
2018-08-18T07:11:38.033Z,51.16
2018-08-18T07:12:38.028Z,51.35
2018-08-18T07:13:38.028Z,48.54
2018-08-18T07:14:37.764Z,47.97
2018-08-18T07:15:37.766Z,45.86
2018-08-18T07:16:38.018Z,46.81
2018-08-18T07:17:38.017Z,47.13
2018-08-18T07:18:38.014Z,47.13
2018-08-18T07:19:38.009Z,48.28
2018-08-18T07:20:38.005Z,49.43
2018-08-18T07:21:38.009Z,57.33
2018-08-18T07:22:37.996Z,60.6
2018-08-18T07:23:37.997Z,62.9
2018-08-18T07:24:37.994Z,69.14
2018-08-18T07:25:37.989Z,67.41
2018-08-18T07:26:37.987Z,66.55
2018-08-18T07:27:37.985Z,67.25
2018-08-18T07:28:38.122Z,67.54
2018-08-18T07:29:37.983Z,78.78
2018-08-18T07:30:37.722Z,77.63
2018-08-18T07:31:37.720Z,79.17
2018-08-18T07:32:37.974Z,82.15
2018-08-18T07:33:37.970Z,81.67
2018-08-18T07:34:37.977Z,77.73
2018-08-18T07:35:37.966Z,76.77
2018-08-18T07:36:37.968Z,76.96
2018-08-18T07:37:38.140Z,77.96
2018-08-18T07:38:37.972Z,81.99
2018-08-18T07:39:37.960Z,87.48
2018-08-18T07:40:37.956Z,89.64
2018-08-18T07:41:37.962Z,91.27
2018-08-18T07:42:37.700Z,92.85
2018-08-18T07:43:37.948Z,97.76
2018-08-18T07:44:37.691Z,99.99
2018-08-18T07:45:37.691Z,99.99
2018-08-18T07:46:37.948Z,99.21
2018-08-18T07:47:37.943Z,99.49
2018-08-18T07:48:37.945Z,97.76
2018-08-18T07:49:37.944Z,96.8
2018-08-18T07:50:37.691Z,98.05
2018-08-18T07:51:37.936Z,99.21
2018-08-18T07:52:37.937Z,98.92
2018-08-18T07:53:38.234Z,99.99
2018-08-18T07:54:37.935Z,99.99
2018-08-18T07:55:37.928Z,99.99
2018-08-18T07:56:37.929Z,99.99
2018-08-18T07:57:37.928Z,99.99
2018-08-18T07:58:37.927Z,99.99
2018-08-18T07:59:38.007Z,99.88
2018-08-18T08:00:37.976Z,99.99
2018-08-18T08:01:37.921Z,99.99
2018-08-18T08:02:37.668Z,99.99
2018-08-18T08:03:37.662Z,99.99
2018-08-18T08:04:37.661Z,99.99
2018-08-18T08:05:38.068Z,99.99
2018-08-18T08:06:37.918Z,99.99
2018-08-18T08:07:37.916Z,99.99
2018-08-18T08:08:37.921Z,99.99
2018-08-18T08:09:37.920Z,99.99
2018-08-18T08:10:37.913Z,99.99
2018-08-18T08:11:37.911Z,99.99
2018-08-18T08:12:38.216Z,99.99
2018-08-18T08:13:37.912Z,99.99
2018-08-18T08:14:37.909Z,99.99
2018-08-18T08:15:37.909Z,99.99
2018-08-18T08:16:37.907Z,99.99
2018-08-18T08:17:37.908Z,99.99
2018-08-18T08:18:37.909Z,99.99
2018-08-18T08:19:37.906Z,99.99
2018-08-18T08:20:37.903Z,99.99
2018-08-18T08:21:37.903Z,99.99
2018-08-18T08:22:37.908Z,99.99
2018-08-18T08:23:37.903Z,99.99
2018-08-18T08:24:37.644Z,99.99
2018-08-18T08:25:37.642Z,99.99
2018-08-18T08:26:37.901Z,99.99
2018-08-18T08:27:37.899Z,99.99
2018-08-18T08:28:37.641Z,99.99
2018-08-18T08:29:37.641Z,99.99
2018-08-18T08:30:37.897Z,99.99
2018-08-18T08:31:37.892Z,99.99
2018-08-18T08:32:37.906Z,98.77
2018-08-18T08:33:37.898Z,97.24
2018-08-18T08:34:37.895Z,99.26
2018-08-18T08:35:37.636Z,99.99
2018-08-18T08:36:37.666Z,99.84
2018-08-18T08:37:37.895Z,97.52
2018-08-18T08:38:37.891Z,97.62
2018-08-18T08:39:37.889Z,96.85
2018-08-18T08:40:37.888Z,99.99
2018-08-18T08:41:37.631Z,99.35
2018-08-18T08:42:37.888Z,97.09
2018-08-18T08:43:37.631Z,99.99
2018-08-18T08:44:37.888Z,99.99
2018-08-18T08:45:37.885Z,99.99
2018-08-18T08:46:37.627Z,99.99
2018-08-18T08:47:37.626Z,97.76
2018-08-18T08:48:37.625Z,98.92
2018-08-18T08:49:37.623Z,97.76
2018-08-18T08:50:37.623Z,99.99
2018-08-18T08:51:37.881Z,99.99
2018-08-18T08:52:37.880Z,98.44
2018-08-18T08:53:37.880Z,96.8
2018-08-18T08:54:37.876Z,97.19
2018-08-18T08:55:37.877Z,96.51
2018-08-18T08:56:37.616Z,96.03
2018-08-18T08:57:37.878Z,97.24
2018-08-18T08:58:37.873Z,96.99
2018-08-18T08:59:37.873Z,98.72
2018-08-18T09:00:37.871Z,98.92
2018-08-18T09:01:37.616Z,97.76
2018-08-18T09:02:37.866Z,99.21
2018-08-18T09:03:37.869Z,95.74
2018-08-18T09:04:37.866Z,95.74
2018-08-18T09:05:37.869Z,95.55
2018-08-18T09:06:37.884Z,97.09
2018-08-18T09:07:37.865Z,96.85
2018-08-18T09:08:37.867Z,97.62
2018-08-18T09:09:37.862Z,99.99
2018-08-18T09:10:37.864Z,99.99
2018-08-18T09:11:37.867Z,99.99
2018-08-18T09:12:37.861Z,99.99
2018-08-18T09:13:37.890Z,99.99
2018-08-18T09:14:37.862Z,99.99
2018-08-18T09:15:37.600Z,99.99
2018-08-18T09:16:37.857Z,99.99
2018-08-18T09:17:37.865Z,99.99
2018-08-18T09:18:37.855Z,99.99
2018-08-18T09:19:37.855Z,99.99
2018-08-18T09:20:37.858Z,99.99
2018-08-18T09:21:37.863Z,99.99
2018-08-18T09:22:37.852Z,99.99
2018-08-18T09:23:37.851Z,99.99
2018-08-18T09:24:37.856Z,99.99
2018-08-18T09:25:37.851Z,99.99
2018-08-18T09:26:37.942Z,99.99
2018-08-18T09:27:37.851Z,99.99
2018-08-18T09:28:37.849Z,99.99
2018-08-18T09:29:37.592Z,99.99
2018-08-18T09:30:37.849Z,99.99
2018-08-18T09:31:37.849Z,99.99
2018-08-18T09:32:37.591Z,99.99
2018-08-18T09:33:37.590Z,99.99
2018-08-18T09:34:37.855Z,99.99
2018-08-18T09:35:37.848Z,99.99
2018-08-18T09:36:37.846Z,99.99
2018-08-18T09:37:37.587Z,99.99
2018-08-18T09:38:37.846Z,99.99
2018-08-18T09:39:37.845Z,99.99
2018-08-18T09:40:37.844Z,99.99
2018-08-18T09:41:37.842Z,99.99
2018-08-18T09:42:37.843Z,99.99
2018-08-18T09:43:37.843Z,99.99
2018-08-18T09:44:37.842Z,99.99
2018-08-18T09:45:37.848Z,99.99
2018-08-18T09:46:37.845Z,99.99
2018-08-18T09:47:37.842Z,99.99
2018-08-18T09:48:37.842Z,99.99
2018-08-18T09:49:37.840Z,99.99
2018-08-18T09:50:37.850Z,99.99
2018-08-18T09:51:37.841Z,99.99
2018-08-18T09:52:37.863Z,99.99
2018-08-18T09:53:37.583Z,99.99
2018-08-18T09:54:37.861Z,99.99
2018-08-18T09:55:37.582Z,99.99
2018-08-18T09:56:37.844Z,99.99
2018-08-18T09:57:37.838Z,99.99
2018-08-18T09:58:37.911Z,99.99
2018-08-18T09:59:37.838Z,99.99
2018-08-18T10:00:37.840Z,99.99
2018-08-18T10:01:37.839Z,99.99
2018-08-18T10:02:37.579Z,99.99
2018-08-18T10:03:37.837Z,99.99
2018-08-18T10:04:37.842Z,99.99
2018-08-18T10:05:37.837Z,99.99
2018-08-18T10:06:37.860Z,99.99
2018-08-18T10:07:37.838Z,99.99
2018-08-18T10:08:37.580Z,99.99
2018-08-18T10:09:37.837Z,99.99
2018-08-18T10:10:37.834Z,99.99
2018-08-18T10:11:37.583Z,99.99
2018-08-18T10:12:37.833Z,99.99
2018-08-18T10:13:37.832Z,99.99
2018-08-18T10:14:37.583Z,99.99
2018-08-18T10:15:37.833Z,99.99
2018-08-18T10:16:37.834Z,99.99
2018-08-18T10:17:37.830Z,99.99
2018-08-18T10:18:37.832Z,99.99
2018-08-18T10:19:37.827Z,99.99
2018-08-18T10:20:37.830Z,98.54
2018-08-18T10:21:37.827Z,97.09
2018-08-18T10:22:37.570Z,98.92
2018-08-18T10:23:37.825Z,97.47
2018-08-18T10:24:37.826Z,99.11
2018-08-18T10:25:37.824Z,99.49
2018-08-18T10:26:37.824Z,99.99
2018-08-18T10:27:37.859Z,99.11
2018-08-18T10:28:37.821Z,98.72
2018-08-18T10:29:37.827Z,99.11
2018-08-18T10:30:37.821Z,99.99
2018-08-18T10:31:37.819Z,99.99
2018-08-18T10:32:37.817Z,99.88
2018-08-18T10:33:37.817Z,99.4
2018-08-18T10:34:37.818Z,99.99
2018-08-18T10:35:37.816Z,99.99
2018-08-18T10:36:37.813Z,99.99
2018-08-18T10:37:37.561Z,99.99
2018-08-18T10:38:37.817Z,99.99
2018-08-18T10:39:37.816Z,99.99
2018-08-18T10:40:37.813Z,99.99
2018-08-18T10:41:37.809Z,99.99
2018-08-18T10:42:37.810Z,99.99
2018-08-18T10:43:37.823Z,99.99
2018-08-18T10:44:37.808Z,99.99
2018-08-18T10:45:37.806Z,99.99
2018-08-18T10:46:37.804Z,99.99
2018-08-18T10:47:37.802Z,99.99
2018-08-18T10:48:37.545Z,99.99
2018-08-18T10:49:37.807Z,99.99
2018-08-18T10:50:37.802Z,99.99
2018-08-18T10:51:38.016Z,99.99
2018-08-18T10:52:37.801Z,99.99
2018-08-18T10:53:37.544Z,99.64
2018-08-18T10:54:37.541Z,99.99
2018-08-18T10:55:37.799Z,99.99
2018-08-18T10:56:37.798Z,99.99
2018-08-18T10:57:37.794Z,99.99
2018-08-18T10:58:37.965Z,99.99
2018-08-18T10:59:37.792Z,99.99
2018-08-18T11:00:37.794Z,99.99
2018-08-18T11:01:37.793Z,99.99
2018-08-18T11:02:37.790Z,99.99
2018-08-18T11:03:37.534Z,99.99
2018-08-18T11:04:37.790Z,99.99
2018-08-18T11:05:37.790Z,99.99
2018-08-18T11:06:37.794Z,99.99
2018-08-18T11:07:37.793Z,99.99
2018-08-18T11:08:37.789Z,99.99
2018-08-18T11:09:37.787Z,99.99
2018-08-18T11:10:37.790Z,99.99
2018-08-18T11:11:37.790Z,99.99
2018-08-18T11:12:37.784Z,99.99
2018-08-18T11:13:37.790Z,99.99
2018-08-18T11:14:37.785Z,99.99
2018-08-18T11:15:37.842Z,99.99
2018-08-18T11:16:37.528Z,99.99
2018-08-18T11:17:37.790Z,99.99
2018-08-18T11:18:37.792Z,99.99
2018-08-18T11:19:37.787Z,99.99
2018-08-18T11:20:37.787Z,99.99
2018-08-18T11:21:37.787Z,99.99
2018-08-18T11:22:37.788Z,99.99
2018-08-18T11:23:37.786Z,99.99
2018-08-18T11:24:37.793Z,99.99
2018-08-18T11:25:37.784Z,99.99
2018-08-18T11:26:37.785Z,99.99
2018-08-18T11:27:37.784Z,99.99
2018-08-18T11:28:37.741Z,99.99
2018-08-18T11:29:37.792Z,99.99
2018-08-18T11:30:37.786Z,99.99
2018-08-18T11:31:37.528Z,99.99
2018-08-18T11:32:37.786Z,99.99
2018-08-18T11:33:37.783Z,99.99
2018-08-18T11:34:37.528Z,99.99
2018-08-18T11:35:37.786Z,99.99
2018-08-18T11:36:37.529Z,99.99
2018-08-18T11:37:37.529Z,99.99
2018-08-18T11:38:37.784Z,99.99
2018-08-18T11:39:37.529Z,99.99
2018-08-18T11:40:37.787Z,99.99
2018-08-18T11:41:37.871Z,99.99
2018-08-18T11:42:37.788Z,99.99
2018-08-18T11:43:37.531Z,99.99
2018-08-18T11:44:37.792Z,99.99
2018-08-18T11:45:37.800Z,99.99
2018-08-18T11:46:37.533Z,99.99
2018-08-18T11:47:37.791Z,99.99
2018-08-18T11:48:37.794Z,99.99
2018-08-18T11:49:37.795Z,99.99
2018-08-18T11:50:37.790Z,99.99
2018-08-18T11:51:37.793Z,99.99
2018-08-18T11:52:37.791Z,99.99
2018-08-18T11:53:37.797Z,99.99
2018-08-18T11:54:37.792Z,99.99
2018-08-18T11:55:37.537Z,99.99
2018-08-18T11:56:37.794Z,99.99
2018-08-18T11:57:37.797Z,99.99
2018-08-18T11:58:37.540Z,99.99
2018-08-18T11:59:37.800Z,99.99
2018-08-18T12:00:37.800Z,99.99
2018-08-18T12:01:37.799Z,99.99
2018-08-18T12:02:37.800Z,99.99
2018-08-18T12:03:37.801Z,99.99
2018-08-18T12:04:37.802Z,99.99
2018-08-18T12:05:37.806Z,99.99
2018-08-18T12:06:37.806Z,99.99
2018-08-18T12:07:37.805Z,99.99
2018-08-18T12:08:37.804Z,99.99
2018-08-18T12:09:37.808Z,99.99
2018-08-18T12:10:38.024Z,99.99
2018-08-18T12:11:37.550Z,99.99
2018-08-18T12:12:37.807Z,99.99
2018-08-18T12:13:37.815Z,99.99
2018-08-18T12:14:37.811Z,99.99
2018-08-18T12:15:37.555Z,99.99
2018-08-18T12:16:37.812Z,99.99
2018-08-18T12:17:37.812Z,99.99
2018-08-18T12:18:37.813Z,99.99
2018-08-18T12:19:37.561Z,99.99
2018-08-18T12:20:37.942Z,99.99
2018-08-18T12:21:37.824Z,99.99
2018-08-18T12:22:37.820Z,99.99
2018-08-18T12:23:37.821Z,99.99
2018-08-18T12:24:37.820Z,99.99
2018-08-18T12:25:37.822Z,99.99
2018-08-18T12:26:37.567Z,99.99
2018-08-18T12:27:37.825Z,99.99
2018-08-18T12:28:37.824Z,99.99
2018-08-18T12:29:38.069Z,99.99
2018-08-18T12:30:37.828Z,99.99
2018-08-18T12:31:37.829Z,99.99
2018-08-18T12:32:37.830Z,99.99
2018-08-18T12:33:37.575Z,99.99
2018-08-18T12:34:37.831Z,99.99
2018-08-18T12:35:37.833Z,99.99
2018-08-18T12:36:37.716Z,99.99
2018-08-18T12:37:37.671Z,99.99
2018-08-18T12:38:37.837Z,99.99
2018-08-18T12:39:37.847Z,99.99
2018-08-18T12:40:37.838Z,99.99
2018-08-18T12:41:37.842Z,99.99
2018-08-18T12:42:37.843Z,99.99
2018-08-18T12:43:37.724Z,99.99
2018-08-18T12:44:37.846Z,99.99
2018-08-18T12:45:37.590Z,99.99
2018-08-18T12:46:37.590Z,99.99
2018-08-18T12:47:37.592Z,99.99
2018-08-18T12:48:37.853Z,99.99
2018-08-18T12:49:38.024Z,99.99
2018-08-18T12:50:37.852Z,99.99
2018-08-18T12:51:37.858Z,99.99
2018-08-18T12:52:37.855Z,99.99
2018-08-18T12:53:37.857Z,99.99
2018-08-18T12:54:37.855Z,99.99
2018-08-18T12:55:37.860Z,99.99
2018-08-18T12:56:37.859Z,99.99
2018-08-18T12:57:37.860Z,99.99
2018-08-18T12:58:38.388Z,99.99
2018-08-18T12:59:37.866Z,99.99
2018-08-18T13:00:37.866Z,99.99
2018-08-18T13:01:37.870Z,99.99
2018-08-18T13:02:37.868Z,99.99
2018-08-18T13:03:37.873Z,99.99
2018-08-18T13:04:37.872Z,99.99
2018-08-18T13:05:37.614Z,99.99
2018-08-18T13:06:37.873Z,99.99
2018-08-18T13:07:37.875Z,99.99
2018-08-18T13:08:37.874Z,99.99
2018-08-18T13:09:37.876Z,99.99
2018-08-18T13:10:37.876Z,99.99
2018-08-18T13:11:38.126Z,99.99
2018-08-18T13:12:37.880Z,99.99
2018-08-18T13:13:37.885Z,99.99
2018-08-18T13:14:37.885Z,99.99
2018-08-18T13:15:37.887Z,99.99
2018-08-18T13:16:37.885Z,99.99
2018-08-18T13:17:37.888Z,99.99
2018-08-18T13:18:38.103Z,99.99
2018-08-18T13:19:37.887Z,99.99
2018-08-18T13:20:37.955Z,99.99
2018-08-18T13:21:37.890Z,99.99
2018-08-18T13:22:37.895Z,99.99
2018-08-18T13:23:37.894Z,99.99
2018-08-18T13:24:37.891Z,99.99
2018-08-18T13:25:37.895Z,99.99
2018-08-18T13:26:38.071Z,98.73
2018-08-18T13:27:37.896Z,98.05
2018-08-18T13:28:37.899Z,99.99
2018-08-18T13:29:37.899Z,99.99
2018-08-18T13:30:37.957Z,99.99
2018-08-18T13:31:37.904Z,99.99
2018-08-18T13:32:37.904Z,99.99
2018-08-18T13:33:37.649Z,99.99
2018-08-18T13:34:37.649Z,99.99
2018-08-18T13:35:37.651Z,99.99